ADDS TAF Board (Experimental) INFO

IDs: Format: Expanded Condensed

Updated at: 2043 UTC 31 Oct 2014

KDCA - Washington/National, VA, US

Issued at 1720 UTC 31 Oct 2014
Time1952Z31/21Z31/22Z31/23Z01/00Z01/01Z01/02Z01/03Z01/04Z01/05Z01/06Z01/07Z01/08Z01/09Z
TypeOBSPRVLPRVLPRVLPRVLPRVLPRVLPRVLPRVLPRVLPRVLPRVLPRVLPRVL
VIS10>6>6>6>6>6>6>6>6>6>6>6>6>6
CIG5550505050505050505050606060
CoverOVCBKNBKNBKNBKNBKNBKNBKNBKNBKNBKNOVCOVCOVC
FltCat--VFRVFRVFRVFRVFRVFRVFRVFRVFRVFRVFRVFRVFR
WX----------------------------
WDir4080808080808080808080202020
WSpd64444444444555
WGst----------------------------
R01/19
XWnd-4-4-4-4-4-4-4-4-4-4-4-2-2-2
HWnd40000000000555
R04/22
XWnd-1-3-3-3-3-3-3-3-3-3-3111
HWnd62222222222555
R15/33
XWnd64444444444444
HWnd-12222222222-3-3-3
Raw TAF
KDCA 311720Z 3118/0118 08004KT P6SM BKN050
  FM010700 02005KT P6SM OVC060
  FM011200 35007KT P6SM OVC030
  FM011500 36011KT P6SM OVC020


Raw METAR
KDCA 311952Z 04006KT 10SM FEW040 OVC055 14/01 A2988 RMK AO2 SLP118 BINOVC NE-SE T01390006

TAF Board Legend

Hazard VFR MVFR IFR LIFR
Visibility (sm) >5 3≤X≤5 1≤X<3 <1
Ceiling (100 ft) >30 10≤X≤30 5≤X<10 <5
Wind Speed (kt) <10 10≤X<20 20≤X<30 ≥30
Wind Gust (kt) <15 15≤X<25 25≤X<35 ≥35
Weather No Wx Reported VCTS,-TS,-FZRA TS,FZRA +TS,+FZRA


Page loaded:  20:43 UTC  |   01:43 PM Pacific  |   02:43 PM Mountain  |   03:43 PM Central  |   04:43 PM Eastern

 

ADVISORIES

FORECASTS

FORECASTS

OBSERVATIONS

USER TOOLS

ABOUT US